Time;durP1;ratioP1;P1;durP2;ratioP2;P2;SDS_P1;SDS_P2;PMS_P1;PMS_P2;Temp;Humidity;BMP_temperature;BMP_pressure;BME280_temperature;BME280_humidity;BME280_pressure;Samples;Min_cycle;Max_cycle;Signal;HPM_P1;HPM_P2
2024/03/30 00:01:32;;;;;;;7.00;1.20;;;6.20;99.90;;;;;;5047298;28;20067;-91
2024/03/30 00:03:58;;;;;;;4.88;1.30;;;6.20;99.90;;;;;;5074593;28;20043;-93
2024/03/30 00:06:24;;;;;;;7.97;1.45;;;6.20;99.90;;;;;;5055661;28;20387;-93
2024/03/30 00:08:50;;;;;;;4.57;1.20;;;6.20;99.90;;;;;;5040543;28;20076;-93
2024/03/30 00:11:15;;;;;;;5.10;2.95;;;6.10;99.90;;;;;;5057175;28;20020;-93
2024/03/30 00:13:41;;;;;;;7.85;1.50;;;6.10;99.90;;;;;;5039226;28;20021;-94
2024/03/30 00:16:08;;;;;;;8.85;1.13;;;6.10;99.90;;;;;;5039545;28;20563;-93
2024/03/30 00:18:34;;;;;;;8.65;1.55;;;6.10;99.90;;;;;;5057986;28;20114;-91
2024/03/30 00:21:02;;;;;;;7.10;1.48;;;6.10;99.90;;;;;;5058443;28;20044;-92
2024/03/30 00:23:31;;;;;;;8.07;2.15;;;6.00;99.90;;;;;;5041527;28;20025;-92
2024/03/30 00:25:57;;;;;;;7.43;1.13;;;6.00;99.90;;;;;;5046906;28;20028;-92
2024/03/30 00:28:24;;;;;;;4.32;1.48;;;6.00;99.90;;;;;;5047431;28;20025;-91
2024/03/30 00:30:51;;;;;;;2.83;1.30;;;6.00;99.90;;;;;;5044798;28;20088;-91
2024/03/30 00:33:17;;;;;;;7.15;1.83;;;5.90;99.90;;;;;;5061133;28;20051;-93
2024/03/30 00:35:44;;;;;;;5.13;1.45;;;5.90;99.90;;;;;;5041238;28;20029;-92
2024/03/30 00:38:10;;;;;;;9.50;1.75;;;5.90;99.90;;;;;;5040114;28;20120;-92
2024/03/30 00:40:37;;;;;;;7.32;1.73;;;5.90;99.90;;;;;;5039334;28;20036;-92
2024/03/30 00:43:03;;;;;;;3.88;2.10;;;5.80;99.90;;;;;;5039230;28;20022;-92
2024/03/30 00:45:30;;;;;;;5.30;1.50;;;5.80;99.90;;;;;;5038885;28;20021;-91
2024/03/30 00:47:56;;;;;;;5.60;1.67;;;5.80;99.90;;;;;;5039382;28;20029;-92
2024/03/30 00:50:22;;;;;;;6.85;1.90;;;5.70;99.90;;;;;;5038290;28;20025;-92
2024/03/30 00:52:48;;;;;;;6.55;1.55;;;5.70;99.90;;;;;;5056261;28;20025;-92
2024/03/30 00:55:14;;;;;;;8.07;2.13;;;5.60;99.90;;;;;;5038360;28;20505;-91
2024/03/30 00:57:42;;;;;;;8.18;1.88;;;5.70;99.90;;;;;;5037997;28;20394;-93
2024/03/30 01:00:15;;;;;;;6.82;2.00;;;5.60;99.90;;;;;;5055437;28;20021;-94
2024/03/30 01:02:41;;;;;;;5.50;1.80;;;5.60;99.90;;;;;;5038200;28;20024;-94
2024/03/30 01:05:08;;;;;;;5.28;2.15;;;5.50;99.90;;;;;;5037408;28;20108;-91
2024/03/30 01:07:34;;;;;;;7.43;1.73;;;5.50;99.90;;;;;;5037138;28;20086;-93
2024/03/30 01:10:03;;;;;;;5.10;1.80;;;5.50;99.90;;;;;;5037672;28;20131;-93
2024/03/30 01:12:29;;;;;;;8.38;1.80;;;5.40;99.90;;;;;;5037947;28;20390;-94
2024/03/30 01:14:55;;;;;;;3.08;1.60;;;5.40;99.90;;;;;;5037753;28;20029;-93
2024/03/30 01:17:21;;;;;;;4.47;1.60;;;5.40;99.90;;;;;;5037113;28;20031;-94
2024/03/30 01:19:47;;;;;;;3.97;1.40;;;5.40;99.90;;;;;;5055314;28;20032;-93
2024/03/30 01:22:13;;;;;;;3.03;1.13;;;5.30;99.90;;;;;;5054726;28;20055;-92
2024/03/30 01:24:39;;;;;;;6.15;1.70;;;5.30;99.90;;;;;;5036748;28;20032;-94
2024/03/30 01:27:26;;;;;;;2.40;1.25;;;5.20;99.90;;;;;;5036867;28;20025;-94
2024/03/30 01:30:04;;;;;;;5.78;1.90;;;5.20;99.90;;;;;;5037179;28;20044;-93
2024/03/30 01:32:31;;;;;;;3.38;2.05;;;5.20;99.90;;;;;;5037203;28;20379;-93
2024/03/30 01:34:57;;;;;;;5.97;1.80;;;5.20;99.90;;;;;;5036813;28;20021;-91
2024/03/30 01:37:23;;;;;;;2.55;1.50;;;5.20;99.90;;;;;;5037577;28;20536;-92
2024/03/30 01:39:49;;;;;;;4.95;1.70;;;5.20;99.90;;;;;;5037750;28;20047;-92
2024/03/30 01:42:14;;;;;;;3.33;1.30;;;5.10;99.90;;;;;;5037582;28;20029;-91
2024/03/30 01:44:40;;;;;;;7.18;2.05;;;5.10;99.90;;;;;;5039679;28;20029;-93
2024/03/30 01:47:06;;;;;;;3.80;1.33;;;5.10;99.90;;;;;;5041240;28;20037;-94
2024/03/30 01:49:32;;;;;;;3.88;1.50;;;5.10;99.90;;;;;;5039785;28;20036;-94
2024/03/30 01:52:01;;;;;;;3.08;1.45;;;5.10;99.90;;;;;;5036962;28;20433;-93
2024/03/30 01:54:29;;;;;;;3.42;1.33;;;5.10;99.90;;;;;;5037054;28;20535;-93
2024/03/30 01:56:57;;;;;;;3.55;1.35;;;5.10;99.90;;;;;;5037069;28;20021;-92
2024/03/30 01:59:23;;;;;;;3.67;1.73;;;5.00;99.90;;;;;;5036927;28;20021;-95
2024/03/30 02:01:50;;;;;;;4.70;1.33;;;5.00;99.90;;;;;;5036645;28;20041;-94
2024/03/30 02:04:16;;;;;;;11.00;2.50;;;5.00;99.90;;;;;;5040848;28;20049;-93
2024/03/30 02:06:43;;;;;;;4.53;1.70;;;5.00;99.90;;;;;;5040680;28;20453;-93
2024/03/30 02:09:10;;;;;;;8.77;1.55;;;4.90;99.90;;;;;;5036834;28;20056;-94
2024/03/30 02:11:40;;;;;;;9.25;1.80;;;4.90;99.90;;;;;;5038075;28;20060;-94
2024/03/30 02:14:07;;;;;;;8.43;2.28;;;4.90;99.90;;;;;;5038064;28;20029;-94
2024/03/30 02:16:35;;;;;;;6.57;2.28;;;4.90;99.90;;;;;;5038327;28;20036;-95
2024/03/30 02:19:03;;;;;;;5.07;1.90;;;4.90;99.90;;;;;;5037851;28;20022;-93
2024/03/30 02:21:29;;;;;;;14.23;2.60;;;4.80;99.90;;;;;;5020344;28;20128;-93
2024/03/30 02:23:54;;;;;;;5.10;1.77;;;4.80;99.90;;;;;;5038870;28;20116;-93
2024/03/30 02:26:20;;;;;;;6.18;2.00;;;4.80;99.90;;;;;;5044048;28;20034;-92
2024/03/30 02:28:48;;;;;;;11.68;2.88;;;4.80;99.90;;;;;;5037738;28;20088;-93
2024/03/30 02:31:14;;;;;;;13.30;2.72;;;4.80;99.90;;;;;;5020963;28;20124;-93
2024/03/30 02:33:40;;;;;;;4.20;1.80;;;4.80;99.90;;;;;;5038087;28;20045;-94
2024/03/30 02:36:06;;;;;;;8.77;2.60;;;4.80;99.90;;;;;;5020776;28;20037;-93
2024/03/30 02:38:32;;;;;;;7.20;2.50;;;4.80;99.90;;;;;;5020530;28;20021;-94
2024/03/30 02:40:58;;;;;;;7.20;2.67;;;4.80;99.90;;;;;;5036747;28;20120;-94
2024/03/30 02:43:24;;;;;;;6.82;3.08;;;4.80;99.90;;;;;;5020252;28;20049;-93
2024/03/30 02:45:49;;;;;;;12.30;3.28;;;4.80;99.90;;;;;;5037450;28;20045;-94
2024/03/30 02:48:15;;;;;;;10.15;3.15;;;4.80;99.90;;;;;;5020258;28;20025;-94
2024/03/30 02:50:41;;;;;;;10.35;2.95;;;4.80;99.90;;;;;;5020089;28;20034;-94
2024/03/30 02:53:07;;;;;;;8.93;3.17;;;4.80;99.90;;;;;;5037693;28;20032;-94
2024/03/30 02:55:33;;;;;;;8.90;3.80;;;4.80;99.90;;;;;;5036205;28;20072;-94
2024/03/30 02:57:58;;;;;;;9.27;4.00;;;4.80;99.90;;;;;;5036892;28;20382;-92
2024/03/30 03:00:24;;;;;;;9.15;3.03;;;4.80;99.90;;;;;;5019615;28;20040;-92
2024/03/30 03:02:53;;;;;;;7.88;3.05;;;4.80;99.90;;;;;;5020283;28;20029;-92
2024/03/30 03:05:18;;;;;;;13.25;3.63;;;4.80;99.90;;;;;;5019539;28;20459;-93
2024/03/30 03:07:44;;;;;;;9.38;3.33;;;4.80;99.90;;;;;;5036674;28;20032;-92
2024/03/30 03:10:10;;;;;;;15.32;4.35;;;4.80;99.90;;;;;;5035849;28;20045;-93
2024/03/30 03:12:35;;;;;;;10.60;5.40;;;4.80;99.90;;;;;;5035836;28;20056;-92
2024/03/30 03:15:04;;;;;;;14.80;4.97;;;4.80;99.90;;;;;;5036662;28;20026;-93
2024/03/30 03:17:35;;;;;;;13.00;5.82;;;4.90;99.90;;;;;;5035607;28;20033;-93
2024/03/30 03:20:05;;;;;;;12.20;4.72;;;4.90;99.90;;;;;;5018425;28;20026;-94
2024/03/30 03:22:34;;;;;;;12.60;5.40;;;4.90;99.90;;;;;;5037144;28;20029;-94
2024/03/30 03:25:02;;;;;;;9.20;4.30;;;4.90;99.90;;;;;;5045005;28;20017;-90
2024/03/30 03:27:27;;;;;;;13.13;4.28;;;4.90;99.90;;;;;;5034453;28;20026;-91
2024/03/30 03:29:53;;;;;;;14.20;5.25;;;5.00;99.90;;;;;;5051847;28;20032;-91
2024/03/30 03:32:19;;;;;;;11.95;5.00;;;5.00;99.90;;;;;;5033468;28;20115;-91
2024/03/30 03:34:45;;;;;;;15.57;6.65;;;5.00;99.90;;;;;;5048343;28;20038;-92
2024/03/30 03:37:10;;;;;;;13.75;6.18;;;5.00;99.90;;;;;;5023336;28;20045;-93
2024/03/30 03:39:36;;;;;;;17.48;6.15;;;5.10;99.90;;;;;;5027039;28;20031;-92
2024/03/30 03:42:02;;;;;;;10.63;4.47;;;5.10;99.90;;;;;;5043065;28;20034;-92
2024/03/30 03:44:27;;;;;;;13.55;5.10;;;5.10;99.90;;;;;;5022844;28;20546;-93
2024/03/30 03:46:53;;;;;;;14.10;5.22;;;5.10;99.90;;;;;;5020064;28;20057;-93
2024/03/30 03:49:18;;;;;;;17.10;6.30;;;5.10;99.90;;;;;;5020378;28;20577;-91
2024/03/30 03:51:44;;;;;;;17.10;5.45;;;5.10;99.90;;;;;;5039563;28;20045;-93
2024/03/30 03:54:10;;;;;;;15.75;5.18;;;5.10;99.90;;;;;;5020056;28;20546;-93
2024/03/30 03:56:35;;;;;;;17.23;5.60;;;5.10;99.90;;;;;;5019510;28;20029;-93
2024/03/30 03:59:01;;;;;;;18.38;5.72;;;5.20;99.90;;;;;;5019373;28;20096;-94
2024/03/30 04:01:27;;;;;;;17.23;5.82;;;5.20;99.90;;;;;;5036783;28;20041;-95
2024/03/30 04:03:52;;;;;;;19.42;6.50;;;5.20;99.90;;;;;;5019417;28;20029;-93
2024/03/30 04:06:18;;;;;;;21.90;5.72;;;5.20;99.90;;;;;;5036880;28;20040;-94
2024/03/30 04:08:46;;;;;;;29.80;7.65;;;5.20;99.90;;;;;;5036145;28;20109;-94
2024/03/30 04:11:12;;;;;;;17.52;5.47;;;5.20;99.90;;;;;;5036561;28;20029;-91
2024/03/30 04:13:38;;;;;;;18.73;5.50;;;5.20;99.90;;;;;;5018901;28;20029;-93
2024/03/30 04:16:06;;;;;;;20.45;5.55;;;5.30;99.90;;;;;;5019143;28;20033;-93
2024/03/30 04:18:33;;;;;;;16.25;6.22;;;5.30;99.90;;;;;;5017914;28;20025;-92
2024/03/30 04:21:03;;;;;;;19.48;5.80;;;5.30;99.90;;;;;;5035439;28;20391;-93
2024/03/30 04:23:31;;;;;;;13.20;5.60;;;5.20;99.90;;;;;;5018378;28;20034;-93
2024/03/30 04:26:07;;;;;;;16.70;4.82;;;5.20;99.90;;;;;;5034366;28;20028;-94
2024/03/30 04:28:34;;;;;;;18.55;4.75;;;5.20;99.90;;;;;;5036086;28;20603;-92
2024/03/30 04:31:05;;;;;;;15.48;5.20;;;5.20;99.90;;;;;;5035616;28;20139;-93
2024/03/30 04:33:31;;;;;;;14.57;4.63;;;5.20;99.90;;;;;;5018531;28;20499;-94
2024/03/30 04:36:02;;;;;;;20.98;5.35;;;5.20;99.90;;;;;;5018437;28;20112;-95
2024/03/30 04:38:28;;;;;;;9.82;3.58;;;5.20;99.90;;;;;;5018582;28;20030;-92
2024/03/30 04:41:03;;;;;;;11.43;5.07;;;5.20;99.90;;;;;;5018510;28;20049;-92
2024/03/30 04:43:30;;;;;;;14.15;4.93;;;5.10;99.90;;;;;;5019916;28;20050;-93
2024/03/30 04:45:56;;;;;;;10.23;3.80;;;5.10;99.90;;;;;;5021788;28;20041;-92
2024/03/30 04:48:24;;;;;;;18.35;5.93;;;5.10;99.90;;;;;;5039258;28;20030;-92
2024/03/30 04:50:50;;;;;;;14.50;4.18;;;5.10;99.90;;;;;;5030945;28;20157;-89
2024/03/30 04:53:18;;;;;;;18.13;5.30;;;5.10;99.90;;;;;;5040785;28;20021;-90
2024/03/30 04:55:57;;;;;;;16.98;5.32;;;5.10;99.90;;;;;;5058133;28;20060;-89
2024/03/30 04:58:24;;;;;;;20.20;5.72;;;5.10;99.90;;;;;;5048435;28;20036;-91
2024/03/30 05:00:52;;;;;;;18.85;4.60;;;5.10;99.90;;;;;;5041360;28;20026;-93
2024/03/30 05:03:18;;;;;;;16.40;5.00;;;5.10;99.90;;;;;;5051522;28;20032;-92
2024/03/30 05:05:45;;;;;;;12.48;4.55;;;5.20;99.90;;;;;;5040344;28;20745;-93
2024/03/30 05:08:11;;;;;;;17.17;5.00;;;5.20;99.90;;;;;;5044221;28;20025;-93
2024/03/30 05:10:38;;;;;;;20.67;5.60;;;5.20;99.90;;;;;;5049534;28;20044;-92
2024/03/30 05:13:05;;;;;;;16.58;6.13;;;5.20;99.90;;;;;;5042145;28;20132;-92
2024/03/30 05:15:36;;;;;;;21.00;7.30;;;5.20;99.90;;;;;;5041461;28;20053;-93
2024/03/30 05:18:09;;;;;;;27.80;6.80;;;5.20;99.90;;;;;;5041238;28;20025;-94
2024/03/30 05:20:51;;;;;;;19.33;5.00;;;5.30;99.90;;;;;;5044758;28;20029;-93
2024/03/30 05:23:17;;;;;;;16.02;6.20;;;5.30;99.90;;;;;;5046366;28;20033;-93
2024/03/30 05:25:44;;;;;;;15.85;5.68;;;5.30;99.90;;;;;;5050864;28;20035;-91
2024/03/30 05:28:10;;;;;;;23.77;6.00;;;5.30;99.90;;;;;;5050658;28;20032;-94
2024/03/30 05:30:37;;;;;;;15.15;5.38;;;5.40;99.90;;;;;;5063085;28;20040;-93
2024/03/30 05:33:03;;;;;;;16.23;5.18;;;5.40;99.90;;;;;;5047120;28;20032;-94
2024/03/30 05:35:29;;;;;;;23.67;5.80;;;5.40;99.90;;;;;;5067239;28;20033;-93
2024/03/30 05:37:55;;;;;;;16.95;4.90;;;5.40;99.90;;;;;;5047111;28;20021;-95
2024/03/30 05:40:22;;;;;;;17.02;5.05;;;5.40;99.90;;;;;;5059828;28;20120;-94
2024/03/30 05:42:48;;;;;;;15.52;4.97;;;5.40;99.90;;;;;;5047054;28;20040;-95
2024/03/30 05:45:13;;;;;;;13.90;5.05;;;5.40;99.90;;;;;;5051044;28;20029;-93
2024/03/30 05:47:39;;;;;;;14.32;5.10;;;5.40;99.90;;;;;;5069288;28;20033;-94
2024/03/30 05:50:05;;;;;;;12.93;4.32;;;5.40;99.90;;;;;;5069764;28;20029;-94
2024/03/30 05:52:30;;;;;;;15.32;4.97;;;5.40;99.90;;;;;;5047140;28;20036;-94
2024/03/30 05:54:56;;;;;;;12.95;4.53;;;5.50;99.90;;;;;;5046757;28;20092;-94
2024/03/30 05:57:22;;;;;;;17.02;4.75;;;5.50;99.90;;;;;;5047129;28;20059;-94
2024/03/30 05:59:48;;;;;;;18.42;5.68;;;5.50;99.90;;;;;;5063159;28;20024;-94
2024/03/30 06:02:13;;;;;;;13.23;4.93;;;5.60;99.90;;;;;;5045706;28;20033;-93
2024/03/30 06:04:39;;;;;;;15.05;5.10;;;5.60;99.90;;;;;;5045923;28;20021;-93
2024/03/30 06:07:08;;;;;;;11.68;4.38;;;5.60;99.90;;;;;;5047160;28;20103;-94
2024/03/30 06:09:37;;;;;;;18.52;5.72;;;5.60;99.90;;;;;;5047625;28;20053;-93
2024/03/30 06:12:03;;;;;;;13.00;4.90;;;5.60;99.90;;;;;;5048525;28;20036;-94
2024/03/30 06:14:33;;;;;;;20.50;4.88;;;5.60;99.90;;;;;;5048023;28;20390;-93
2024/03/30 06:16:59;;;;;;;14.13;5.00;;;5.60;99.90;;;;;;5046443;28;20017;-93
2024/03/30 06:19:25;;;;;;;11.25;4.10;;;5.60;99.90;;;;;;5047554;28;20033;-94
2024/03/30 06:21:52;;;;;;;10.38;4.10;;;5.60;99.90;;;;;;5063074;28;20181;-93
2024/03/30 06:24:17;;;;;;;20.02;4.60;;;5.60;99.90;;;;;;5045853;28;20025;-93
2024/03/30 06:26:43;;;;;;;18.42;5.20;;;5.70;99.90;;;;;;5046792;28;20036;-92
2024/03/30 06:29:09;;;;;;;17.48;4.60;;;5.70;99.90;;;;;;5049013;28;20032;-92
2024/03/30 06:31:36;;;;;;;15.15;4.93;;;5.70;99.90;;;;;;5066587;28;20025;-91
2024/03/30 06:34:05;;;;;;;11.30;4.13;;;5.70;99.90;;;;;;5050299;28;20017;-92
2024/03/30 06:36:32;;;;;;;14.35;4.80;;;5.70;99.90;;;;;;5069151;28;20088;-93
2024/03/30 06:38:58;;;;;;;11.23;4.13;;;5.70;99.90;;;;;;5051806;28;20029;-90
2024/03/30 06:44:10;;;;;;;23.77;3.85;;;5.70;99.90;;;;;;5068201;28;20039;-93
2024/03/30 06:46:36;;;;;;;19.05;4.13;;;5.70;99.90;;;;;;5046381;28;20029;-91
2024/03/30 06:49:01;;;;;;;15.75;3.67;;;5.70;99.90;;;;;;5054221;28;20028;-91
2024/03/30 06:51:27;;;;;;;20.33;4.20;;;5.80;99.90;;;;;;5051855;28;20128;-92
2024/03/30 06:53:53;;;;;;;12.82;3.55;;;5.80;99.90;;;;;;5035745;28;20033;-90
2024/03/30 06:56:18;;;;;;;13.32;3.78;;;5.80;99.90;;;;;;5071323;28;20088;-91
2024/03/30 06:58:44;;;;;;;11.45;3.30;;;5.80;99.90;;;;;;5057064;28;20028;-92
2024/03/30 07:01:10;;;;;;;15.73;4.72;;;5.80;99.90;;;;;;5069324;28;20116;-91
2024/03/30 07:03:35;;;;;;;17.52;4.50;;;5.90;99.90;;;;;;5051226;28;20020;-92
2024/03/30 07:06:01;;;;;;;13.57;4.93;;;5.90;99.90;;;;;;5050416;28;20028;-93
2024/03/30 07:08:27;;;;;;;16.30;4.63;;;5.90;99.90;;;;;;5050704;28;20196;-92
2024/03/30 07:10:53;;;;;;;13.85;4.25;;;5.90;99.90;;;;;;5050872;28;20021;-93
2024/03/30 07:13:18;;;;;;;15.63;4.32;;;6.00;99.90;;;;;;5049797;28;20033;-93
2024/03/30 07:15:44;;;;;;;14.55;4.85;;;6.00;99.90;;;;;;5073124;28;20029;-93
2024/03/30 07:18:11;;;;;;;22.85;6.00;;;6.10;99.90;;;;;;5067440;28;20035;-93
2024/03/30 07:20:53;;;;;;;;;;;;;;;;;;;;;
2024/03/30 07:23:20;;;;;;;11.35;3.25;;;6.10;99.90;;;;;;5061382;28;20096;-94
2024/03/30 07:25:46;;;;;;;15.98;4.50;;;6.20;99.90;;;;;;5047206;28;20021;-92
2024/03/30 07:28:12;;;;;;;12.18;3.50;;;6.10;99.90;;;;;;5047487;28;20025;-93
2024/03/30 07:30:39;;;;;;;15.40;2.78;;;6.10;99.90;;;;;;5047460;28;20104;-91
2024/03/30 07:33:05;;;;;;;12.15;3.50;;;6.10;99.90;;;;;;5046797;28;20029;-92
2024/03/30 07:35:32;;;;;;;15.30;3.25;;;6.20;99.90;;;;;;5062929;28;20081;-94
2024/03/30 07:37:59;;;;;;;15.88;3.03;;;6.20;99.90;;;;;;5069159;28;20043;-93
2024/03/30 07:40:24;;;;;;;12.68;3.30;;;6.20;99.90;;;;;;5067564;28;20116;-94
2024/03/30 07:42:50;;;;;;;8.32;2.90;;;6.20;99.90;;;;;;5050150;28;20044;-92
2024/03/30 07:45:16;;;;;;;11.98;3.65;;;6.20;99.90;;;;;;5050875;28;20032;-92
2024/03/30 07:47:41;;;;;;;8.90;2.60;;;6.20;99.90;;;;;;5050341;28;20043;-94
2024/03/30 07:50:07;;;;;;;16.92;5.20;;;6.20;99.90;;;;;;5042981;28;20032;-92
2024/03/30 07:52:33;;;;;;;13.75;3.65;;;6.20;99.90;;;;;;5030999;28;20060;-92
2024/03/30 07:54:59;;;;;;;12.75;3.47;;;6.20;99.90;;;;;;5031104;28;20021;-91
2024/03/30 07:57:25;;;;;;;14.02;3.20;;;6.20;99.90;;;;;;5050548;28;20051;-92
2024/03/30 07:59:51;;;;;;;14.07;3.22;;;6.30;99.90;;;;;;5049990;28;20047;-92
2024/03/30 08:02:16;;;;;;;11.77;3.08;;;6.30;99.90;;;;;;5066663;28;20065;-92
2024/03/30 08:04:42;;;;;;;14.73;2.83;;;6.30;99.90;;;;;;5043303;28;20035;-93
2024/03/30 08:07:09;;;;;;;14.25;3.50;;;6.40;99.90;;;;;;5067447;28;20017;-92
2024/03/30 08:09:35;;;;;;;6.78;2.70;;;6.40;99.90;;;;;;5040109;28;20131;-93
2024/03/30 08:12:01;;;;;;;11.98;3.67;;;6.50;99.90;;;;;;5063186;28;20079;-94
2024/03/30 08:14:29;;;;;;;13.98;3.35;;;6.50;99.90;;;;;;5053239;28;20088;-92
2024/03/30 08:16:54;;;;;;;10.32;2.58;;;6.60;99.90;;;;;;5035531;28;20114;-94
2024/03/30 08:19:21;;;;;;;15.82;3.10;;;6.60;99.90;;;;;;5058297;28;20017;-94
2024/03/30 08:21:47;;;;;;;14.30;2.55;;;6.70;99.90;;;;;;5038315;28;20111;-93
2024/03/30 08:24:13;;;;;;;11.25;3.00;;;6.80;99.90;;;;;;5048350;28;20041;-94
2024/03/30 08:26:39;;;;;;;9.32;2.72;;;6.90;99.90;;;;;;5052466;28;20020;-93
2024/03/30 08:29:06;;;;;;;13.20;2.78;;;6.90;99.90;;;;;;5061987;28;20025;-92
2024/03/30 08:31:32;;;;;;;7.95;2.05;;;7.00;99.90;;;;;;5038722;28;20021;-93
2024/03/30 08:33:58;;;;;;;18.33;3.75;;;7.00;99.90;;;;;;5034203;28;20462;-93
2024/03/30 08:36:24;;;;;;;10.90;2.03;;;7.00;99.90;;;;;;5052176;28;20028;-92
2024/03/30 08:38:50;;;;;;;15.63;2.25;;;7.00;99.90;;;;;;5030381;28;20021;-93
2024/03/30 08:41:16;;;;;;;14.05;2.83;;;7.10;99.90;;;;;;5026061;28;20037;-93
2024/03/30 08:43:47;;;;;;;10.27;2.10;;;7.20;99.90;;;;;;5040432;28;20030;-92
2024/03/30 08:46:12;;;;;;;8.55;2.45;;;7.30;99.90;;;;;;5044506;28;20032;-95
2024/03/30 08:48:38;;;;;;;11.18;2.28;;;7.40;99.90;;;;;;5054477;28;20021;-94
2024/03/30 08:51:04;;;;;;;7.00;2.00;;;7.50;99.90;;;;;;5038975;28;20028;-92
2024/03/30 08:53:29;;;;;;;16.02;2.40;;;7.50;99.90;;;;;;5055764;28;20021;-93
2024/03/30 08:56:00;;;;;;;11.73;3.00;;;7.50;99.90;;;;;;5039027;28;20108;-94
2024/03/30 08:58:26;;;;;;;;;;;7.60;99.90;;;;;;5039815;28;20017;-93
2024/03/30 09:00:53;;;;;;;18.52;2.35;;;7.70;99.90;;;;;;5039557;28;19913;-93
2024/03/30 09:03:19;;;;;;;11.50;2.25;;;7.70;99.90;;;;;;5037353;28;20120;-95
2024/03/30 09:05:53;;;;;;;18.40;3.10;;;7.80;99.90;;;;;;5040874;28;20045;-95
2024/03/30 09:08:18;;;;;;;15.63;2.45;;;7.90;99.90;;;;;;5035261;28;20025;-94
2024/03/30 09:10:45;;;;;;;11.38;2.63;;;8.00;99.90;;;;;;5035013;28;20060;-93
2024/03/30 09:13:10;;;;;;;11.80;1.98;;;8.00;99.90;;;;;;5047138;28;20021;-93
2024/03/30 09:15:36;;;;;;;10.48;2.25;;;8.20;99.90;;;;;;5052326;28;20159;-93
2024/03/30 09:18:05;;;;;;;7.13;1.80;;;8.20;99.90;;;;;;5023349;28;20032;-94
2024/03/30 09:20:31;;;;;;;10.85;2.80;;;8.30;99.90;;;;;;5056359;28;20025;-93
2024/03/30 09:22:57;;;;;;;7.32;2.20;;;8.40;99.90;;;;;;5055429;28;20025;-93
2024/03/30 09:25:22;;;;;;;11.43;3.17;;;8.50;99.90;;;;;;5037165;28;20058;-93
2024/03/30 09:27:48;;;;;;;7.15;1.42;;;8.60;99.90;;;;;;5052481;28;20057;-94
2024/03/30 09:30:14;;;;;;;16.73;2.60;;;8.70;99.90;;;;;;5037078;28;20412;-95
2024/03/30 09:32:40;;;;;;;13.55;1.40;;;8.90;99.90;;;;;;5054229;28;20025;-94
2024/03/30 09:35:08;;;;;;;9.65;1.50;;;9.10;99.90;;;;;;5043366;28;20025;-93
2024/03/30 09:37:37;;;;;;;17.35;1.77;;;9.30;99.90;;;;;;5071292;28;20024;-91
2024/03/30 09:40:03;;;;;;;11.70;1.83;;;9.50;99.90;;;;;;5053300;28;20029;-92
2024/03/30 09:42:37;;;;;;;7.68;1.42;;;9.60;99.90;;;;;;5066799;28;20044;-92
2024/03/30 09:45:04;;;;;;;9.55;1.92;;;9.80;99.90;;;;;;5046095;28;20160;-94
2024/03/30 09:47:36;;;;;;;8.48;1.60;;;9.80;99.90;;;;;;5040267;28;20034;-95
2024/03/30 09:50:04;;;;;;;9.55;1.42;;;9.90;99.90;;;;;;5054387;28;20043;-95
2024/03/30 09:52:31;;;;;;;10.98;2.15;;;10.00;99.90;;;;;;5036989;28;20025;-95
2024/03/30 09:55:00;;;;;;;6.70;1.20;;;10.10;99.90;;;;;;5022987;28;20037;-94
2024/03/30 09:57:27;;;;;;;10.55;1.73;;;10.30;99.90;;;;;;5056327;28;20471;-93
2024/03/30 09:59:53;;;;;;;7.32;1.33;;;10.60;99.90;;;;;;5037437;28;20025;-92
2024/03/30 10:02:20;;;;;;;11.95;1.42;;;10.80;99.90;;;;;;5036155;28;20115;-93
2024/03/30 10:04:48;;;;;;;10.02;1.40;;;11.10;99.90;;;;;;5029376;28;20033;-92
2024/03/30 10:07:38;;;;;;;8.45;1.15;;;11.20;99.90;;;;;;5037220;28;20170;-94
2024/03/30 10:10:14;;;;;;;8.57;1.07;;;11.30;99.90;;;;;;5026276;28;20414;-92
2024/03/30 10:12:57;;;;;;;3.40;1.05;;;11.40;99.90;;;;;;5044996;28;20043;-92
2024/03/30 10:15:46;;;;;;;9.10;1.40;;;11.60;99.90;;;;;;5035708;28;20025;-94
2024/03/30 10:18:12;;;;;;;8.82;1.25;;;11.80;99.90;;;;;;5036649;28;20395;-92
2024/03/30 10:20:38;;;;;;;8.00;1.27;;;11.80;99.90;;;;;;5052234;28;20087;-93
2024/03/30 10:23:04;;;;;;;6.95;1.40;;;11.90;99.90;;;;;;5054535;28;20478;-92
2024/03/30 10:25:31;;;;;;;7.28;1.92;;;11.80;99.90;;;;;;5038303;28;20029;-93
2024/03/30 10:27:57;;;;;;;6.70;1.30;;;11.70;99.90;;;;;;5033123;28;20025;-95
2024/03/30 10:30:23;;;;;;;3.42;0.80;;;11.60;99.90;;;;;;5039878;28;20017;-93
2024/03/30 10:32:55;;;;;;;3.80;1.20;;;11.60;99.90;;;;;;5040593;28;20025;-93
2024/03/30 10:35:21;;;;;;;8.77;1.50;;;11.60;99.90;;;;;;5040886;28;20458;-93
2024/03/30 10:37:57;;;;;;;4.60;1.15;;;11.70;99.90;;;;;;5039944;28;20028;-94
2024/03/30 10:40:24;;;;;;;8.25;2.35;;;12.10;99.90;;;;;;5049756;28;20037;-92
2024/03/30 10:42:55;;;;;;;17.02;1.52;;;12.30;99.90;;;;;;5059956;28;20016;-93
2024/03/30 10:45:28;;;;;;;;;;;12.60;99.90;;;;;;5031114;28;20059;-95
2024/03/30 10:47:57;;;;;;;5.15;1.00;;;12.90;99.90;;;;;;5041424;28;20547;-93
2024/03/30 10:50:25;;;;;;;5.35;1.02;;;13.20;99.90;;;;;;5053751;28;20026;-92
2024/03/30 10:52:52;;;;;;;7.72;1.10;;;13.40;99.50;;;;;;5057235;28;20123;-95
2024/03/30 10:55:18;;;;;;;9.52;1.80;;;13.40;98.80;;;;;;5030408;28;20096;-94
2024/03/30 10:57:44;;;;;;;9.07;1.52;;;13.60;97.60;;;;;;5041084;28;20048;-92
2024/03/30 11:00:10;;;;;;;6.88;1.65;;;13.80;97.80;;;;;;5042923;28;20119;-95
2024/03/30 11:02:41;;;;;;;8.88;1.20;;;14.00;96.40;;;;;;5056237;28;20043;-92
2024/03/30 11:05:07;;;;;;;9.50;1.08;;;14.20;96.00;;;;;;5044983;28;20485;-93
2024/03/30 11:07:38;;;;;;;4.88;1.35;;;14.40;95.50;;;;;;5042124;28;20367;-93
2024/03/30 11:10:05;;;;;;;6.88;1.05;;;14.60;94.50;;;;;;5059921;28;20079;-94
2024/03/30 11:12:32;;;;;;;3.08;0.90;;;14.70;94.10;;;;;;5041967;28;20021;-94
2024/03/30 11:15:01;;;;;;;4.22;0.90;;;14.90;93.30;;;;;;5063454;28;20067;-93
2024/03/30 11:18:06;;;;;;;4.70;0.93;;;15.00;91.40;;;;;;5049245;28;20060;-93
2024/03/30 11:20:44;;;;;;;6.15;0.98;;;15.00;90.50;;;;;;5055363;28;20072;-93
2024/03/30 11:23:27;;;;;;;6.78;0.77;;;15.00;87.10;;;;;;5041617;28;20021;-94
2024/03/30 11:26:04;;;;;;;4.00;1.30;;;15.00;85.60;;;;;;5031781;28;20075;-93
2024/03/30 11:28:43;;;;;;;7.57;1.02;;;14.90;84.50;;;;;;5048409;28;20053;-95
2024/03/30 11:31:43;;;;;;;8.15;1.17;;;15.00;83.90;;;;;;5060930;28;20013;-93
2024/03/30 11:34:36;;;;;;;5.80;0.98;;;15.10;83.80;;;;;;5064261;28;20037;-94
2024/03/30 11:37:25;;;;;;;3.22;0.65;;;15.20;84.20;;;;;;5047836;28;20025;-93
2024/03/30 11:40:25;;;;;;;4.75;1.27;;;15.20;83.10;;;;;;5054125;28;20078;-95
2024/03/30 11:43:13;;;;;;;5.88;1.10;;;15.00;82.80;;;;;;5049972;28;20028;-96
2024/03/30 11:45:41;;;;;;;7.57;0.80;;;14.80;82.50;;;;;;5064788;28;20032;-95
2024/03/30 11:48:16;;;;;;;3.13;1.05;;;14.90;82.40;;;;;;5049625;28;20032;-94
2024/03/30 11:50:44;;;;;;;5.10;0.70;;;15.00;82.50;;;;;;5045119;28;20051;-94
2024/03/30 11:53:19;;;;;;;7.30;1.02;;;15.10;81.60;;;;;;5042767;28;20021;-94
2024/03/30 11:55:53;;;;;;;5.03;0.90;;;15.20;81.10;;;;;;5039089;28;20410;-94
2024/03/30 11:58:23;;;;;;;5.40;1.10;;;15.20;81.00;;;;;;5039545;28;20028;-95
2024/03/30 12:00:58;;;;;;;4.88;1.00;;;15.10;79.50;;;;;;5049903;28;20088;-92
2024/03/30 12:03:31;;;;;;;4.60;1.15;;;15.00;80.30;;;;;;5041846;28;20060;-94
2024/03/30 12:09:32;;;;;;;4.22;0.80;;;15.60;80.80;;;;;;5919887;22;20132;-96
2024/03/30 12:12:22;;;;;;;6.60;0.95;;;16.10;78.00;;;;;;5118336;28;20055;-96
2024/03/30 12:14:50;;;;;;;3.72;1.02;;;16.30;77.40;;;;;;5096384;28;20026;-95
2024/03/30 12:17:19;;;;;;;5.43;0.75;;;16.50;77.20;;;;;;5118718;28;20024;-95
2024/03/30 12:19:48;;;;;;;11.13;1.05;;;16.80;76.60;;;;;;5106816;28;20027;-95
2024/03/30 12:22:14;;;;;;;2.13;0.70;;;16.80;75.20;;;;;;5092340;28;20039;-94
2024/03/30 12:24:43;;;;;;;5.00;0.80;;;16.50;74.00;;;;;;5124785;28;20020;-94
2024/03/30 12:27:09;;;;;;;6.18;1.23;;;16.30;74.40;;;;;;5100165;28;20024;-96
2024/03/30 12:29:35;;;;;;;3.42;0.90;;;16.30;75.30;;;;;;5104998;28;20028;-95
2024/03/30 12:32:03;;;;;;;3.67;0.68;;;16.60;75.10;;;;;;5104204;28;20461;-94
2024/03/30 12:34:32;;;;;;;3.05;0.75;;;16.70;73.70;;;;;;5124709;28;20019;-93
2024/03/30 12:36:58;;;;;;;5.07;0.80;;;16.80;73.20;;;;;;5090293;28;20057;-93
2024/03/30 12:39:24;;;;;;;4.43;0.73;;;16.90;71.70;;;;;;5101938;28;20565;-93
2024/03/30 12:41:50;;;;;;;2.65;0.80;;;16.90;71.20;;;;;;5105300;28;20039;-92
2024/03/30 12:44:15;;;;;;;6.13;1.10;;;17.10;71.70;;;;;;5125031;28;20055;-94
2024/03/30 12:46:41;;;;;;;7.10;1.52;;;17.20;71.80;;;;;;5122737;28;20024;-93
2024/03/30 12:49:07;;;;;;;3.90;1.73;;;17.30;71.60;;;;;;5089873;28;20028;-92
2024/03/30 12:51:35;;;;;;;5.20;1.00;;;17.50;71.60;;;;;;5098003;28;20578;-94
2024/03/30 12:54:05;;;;;;;4.05;0.90;;;17.60;71.40;;;;;;5074369;28;20396;-93
2024/03/30 12:56:33;;;;;;;1.90;0.67;;;17.80;71.10;;;;;;5078095;28;20119;-93
2024/03/30 12:58:59;;;;;;;6.68;1.15;;;17.90;69.50;;;;;;5079580;28;20469;-93
2024/03/30 13:01:25;;;;;;;5.65;0.90;;;18.00;68.90;;;;;;5078706;28;20038;-93